createdAt,value
2018-10-12T00:00:33.506Z,0.00
2018-10-12T00:01:33.481Z,0.00
2018-10-12T00:02:33.425Z,0.00
2018-10-12T00:03:33.393Z,0.00
2018-10-12T00:04:33.344Z,0.00
2018-10-12T00:05:33.304Z,0.00
2018-10-12T00:06:33.284Z,0.00
2018-10-12T00:07:33.243Z,0.00
2018-10-12T00:08:33.249Z,0.00
2018-10-12T00:09:33.156Z,0.00
2018-10-12T00:10:33.113Z,0.00
2018-10-12T00:11:33.082Z,0.00
2018-10-12T00:12:33.019Z,0.00
2018-10-12T00:13:32.982Z,0.00
2018-10-12T00:14:32.929Z,0.00
2018-10-12T00:15:32.898Z,0.00
2018-10-12T00:16:32.873Z,0.00
2018-10-12T00:17:32.825Z,0.00
2018-10-12T00:18:32.799Z,0.00
2018-10-12T00:19:32.745Z,0.00
2018-10-12T00:20:32.697Z,0.00
2018-10-12T00:21:32.682Z,0.00
2018-10-12T00:22:32.626Z,0.00
2018-10-12T00:25:04.445Z,0.00
2018-10-12T00:26:04.352Z,0.00
2018-10-12T00:27:57.412Z,0.00
2018-10-12T00:28:57.309Z,0.00
2018-10-12T00:30:51.928Z,0.00
2018-10-12T00:31:51.812Z,0.00
2018-10-12T00:33:44.884Z,0.00
2018-10-12T00:34:44.777Z,0.00
2018-10-12T00:36:37.808Z,0.00
2018-10-12T00:37:37.734Z,0.00
2018-10-12T00:38:37.672Z,0.00
2018-10-12T00:39:37.652Z,0.00
2018-10-12T00:40:37.594Z,0.00
2018-10-12T00:41:37.564Z,0.00
2018-10-12T00:42:37.518Z,0.00
2018-10-12T00:43:37.462Z,0.00
2018-10-12T00:44:37.444Z,0.00
2018-10-12T00:45:37.392Z,0.00
2018-10-12T00:46:37.345Z,0.00
2018-10-12T00:47:37.305Z,0.00
2018-10-12T00:48:37.286Z,0.00
2018-10-12T00:49:37.227Z,0.00
2018-10-12T00:50:37.194Z,0.00
2018-10-12T00:51:37.151Z,0.00
2018-10-12T00:52:37.134Z,0.00
2018-10-12T00:53:37.065Z,0.00
2018-10-12T00:54:37.038Z,0.00
2018-10-12T00:55:36.983Z,0.00
2018-10-12T00:56:36.959Z,0.00
2018-10-12T00:57:36.936Z,0.00
2018-10-12T00:58:36.865Z,0.00
2018-10-12T00:59:36.826Z,0.00
2018-10-12T01:00:36.838Z,0.00
2018-10-12T01:01:36.747Z,0.00
2018-10-12T01:02:36.695Z,0.00
2018-10-12T01:03:36.671Z,0.00
2018-10-12T01:04:36.637Z,0.00
2018-10-12T01:05:36.604Z,0.00
2018-10-12T01:06:36.547Z,0.00
2018-10-12T01:07:36.598Z,0.00
2018-10-12T01:08:36.460Z,0.00
2018-10-12T01:09:36.438Z,0.00
2018-10-12T01:10:36.407Z,0.00
2018-10-12T01:11:36.341Z,0.00
2018-10-12T01:12:36.325Z,0.00
2018-10-12T01:13:36.257Z,0.00
2018-10-12T01:14:36.246Z,0.00
2018-10-12T01:15:36.194Z,0.00
2018-10-12T01:16:36.166Z,0.00
2018-10-12T01:17:36.122Z,0.00
2018-10-12T01:18:36.059Z,0.00
2018-10-12T01:19:36.040Z,0.00
2018-10-12T01:20:36.016Z,0.00
2018-10-12T01:21:35.971Z,0.00
2018-10-12T01:22:35.920Z,0.00
2018-10-12T01:23:35.872Z,0.00
2018-10-12T01:24:35.828Z,0.00
2018-10-12T01:25:35.789Z,0.00
2018-10-12T01:26:35.757Z,0.00
2018-10-12T01:27:35.718Z,0.00
2018-10-12T01:28:35.687Z,0.00
2018-10-12T01:29:35.633Z,0.00
2018-10-12T01:30:35.589Z,0.00
2018-10-12T01:31:35.540Z,0.00
2018-10-12T01:32:35.543Z,0.00
2018-10-12T01:33:35.471Z,0.00
2018-10-12T01:34:35.444Z,0.00
2018-10-12T01:35:35.395Z,0.00
2018-10-12T01:36:35.363Z,0.00
2018-10-12T01:37:35.308Z,0.00
2018-10-12T01:38:35.279Z,0.00
2018-10-12T01:39:35.243Z,0.00
2018-10-12T01:40:35.187Z,0.00
2018-10-12T01:41:35.175Z,0.00
2018-10-12T01:42:35.113Z,0.00
2018-10-12T01:43:35.095Z,0.00
2018-10-12T01:44:35.044Z,0.00
2018-10-12T01:45:35.013Z,0.00
2018-10-12T01:46:34.962Z,0.00
2018-10-12T01:47:34.920Z,0.00
2018-10-12T01:48:34.874Z,0.00
2018-10-12T01:49:34.854Z,0.00
2018-10-12T01:50:34.798Z,0.00
2018-10-12T01:51:34.759Z,0.00
2018-10-12T01:52:34.719Z,0.00
2018-10-12T01:53:34.677Z,0.00
2018-10-12T01:54:34.652Z,0.00
2018-10-12T01:55:34.604Z,0.00
2018-10-12T01:56:34.559Z,0.00
2018-10-12T01:57:34.526Z,0.00
2018-10-12T01:58:34.471Z,0.00
2018-10-12T01:59:34.447Z,0.00
2018-10-12T02:00:34.395Z,0.00
2018-10-12T02:01:34.365Z,0.00
2018-10-12T02:02:34.353Z,0.00
2018-10-12T02:03:34.297Z,0.00
2018-10-12T02:04:34.246Z,0.00
2018-10-12T02:05:34.205Z,0.00
2018-10-12T02:06:34.160Z,0.00
2018-10-12T02:07:34.123Z,0.00
2018-10-12T02:08:34.081Z,0.00
2018-10-12T02:09:34.045Z,0.00
2018-10-12T02:10:34.013Z,0.00
2018-10-12T02:11:33.971Z,0.00
2018-10-12T02:12:33.935Z,0.00
2018-10-12T02:13:33.910Z,0.00
2018-10-12T02:14:33.849Z,0.00
2018-10-12T02:15:33.813Z,0.00
2018-10-12T02:16:33.777Z,0.00
2018-10-12T02:17:33.750Z,0.00
2018-10-12T02:18:33.702Z,0.00
2018-10-12T02:19:33.669Z,0.00
2018-10-12T02:20:33.628Z,0.00
2018-10-12T02:21:33.582Z,0.00
2018-10-12T02:22:33.528Z,0.00
2018-10-12T02:23:33.493Z,0.00
2018-10-12T02:24:33.458Z,0.00
2018-10-12T02:25:33.428Z,0.00
2018-10-12T02:26:33.381Z,0.00
2018-10-12T02:27:33.383Z,0.00
2018-10-12T02:28:33.329Z,0.00
2018-10-12T02:29:33.283Z,0.00
2018-10-12T02:30:33.225Z,0.00
2018-10-12T02:31:33.176Z,0.00
2018-10-12T02:32:33.138Z,0.00
2018-10-12T02:33:33.102Z,0.00
2018-10-12T02:34:33.079Z,0.00
2018-10-12T02:35:33.038Z,0.00
2018-10-12T02:36:32.987Z,0.00
2018-10-12T02:37:32.987Z,0.00
2018-10-12T02:38:32.933Z,0.00
2018-10-12T02:39:32.887Z,0.00
2018-10-12T02:40:32.857Z,0.00
2018-10-12T02:41:32.807Z,0.00
2018-10-12T02:42:32.777Z,0.00
2018-10-12T02:43:32.716Z,0.00
2018-10-12T02:44:32.691Z,0.00
2018-10-12T02:45:32.642Z,0.00
2018-10-12T02:46:32.615Z,0.00
2018-10-12T02:47:32.575Z,0.00
2018-10-12T02:48:32.521Z,0.00
2018-10-12T02:49:32.492Z,0.00
2018-10-12T02:50:32.448Z,0.00
2018-10-12T02:51:32.406Z,0.00
2018-10-12T02:52:32.377Z,0.00
2018-10-12T02:53:32.331Z,0.00
2018-10-12T02:54:32.293Z,0.00
2018-10-12T02:55:32.321Z,0.00
2018-10-12T02:56:32.219Z,0.00
2018-10-12T02:57:32.167Z,0.00
2018-10-12T02:58:32.131Z,0.00
2018-10-12T02:59:32.117Z,0.00
2018-10-12T03:00:32.108Z,0.00
2018-10-12T03:01:32.023Z,0.00
2018-10-12T03:02:31.982Z,0.00
2018-10-12T03:03:31.956Z,0.00
2018-10-12T03:04:31.911Z,0.00
2018-10-12T03:05:31.859Z,0.00
2018-10-12T03:06:31.826Z,0.00
2018-10-12T03:07:31.816Z,0.00
2018-10-12T03:08:31.749Z,0.00
2018-10-12T03:09:31.723Z,0.00
2018-10-12T03:10:31.694Z,0.00
2018-10-12T03:11:31.642Z,0.00
2018-10-12T03:12:31.618Z,0.00
2018-10-12T03:13:31.570Z,0.00
2018-10-12T03:14:31.550Z,0.00
2018-10-12T03:15:31.503Z,0.00
2018-10-12T03:16:31.477Z,0.00
2018-10-12T03:17:31.430Z,0.00
2018-10-12T03:18:31.441Z,0.00
2018-10-12T03:19:31.362Z,0.00
2018-10-12T03:20:31.330Z,0.00
2018-10-12T03:21:31.251Z,0.00
2018-10-12T03:22:31.241Z,0.00
2018-10-12T03:23:31.195Z,0.00
2018-10-12T03:24:31.158Z,0.00
2018-10-12T03:25:31.105Z,0.00
2018-10-12T03:26:31.081Z,0.00
2018-10-12T03:27:31.036Z,0.00
2018-10-12T03:28:31.012Z,0.00
2018-10-12T03:29:30.978Z,0.00
2018-10-12T03:30:30.925Z,0.00
2018-10-12T03:31:30.885Z,0.00
2018-10-12T03:32:30.846Z,0.00
2018-10-12T03:33:30.811Z,0.00
2018-10-12T03:34:30.780Z,0.00
2018-10-12T03:35:30.728Z,0.00
2018-10-12T03:36:30.677Z,0.00
2018-10-12T03:37:30.699Z,0.00
2018-10-12T03:38:30.630Z,0.00
2018-10-12T03:39:30.576Z,0.00
2018-10-12T03:40:30.557Z,0.00
2018-10-12T03:41:30.482Z,0.00
2018-10-12T03:42:30.458Z,0.00
2018-10-12T03:43:30.428Z,0.00
2018-10-12T03:44:30.418Z,0.00
2018-10-12T03:45:30.372Z,0.00
2018-10-12T03:46:30.361Z,0.00
2018-10-12T03:47:30.264Z,0.00
2018-10-12T03:48:30.223Z,0.00
2018-10-12T03:49:30.183Z,0.00
2018-10-12T03:50:30.160Z,0.00
2018-10-12T03:51:30.182Z,0.00
2018-10-12T03:52:30.088Z,0.00
2018-10-12T03:53:30.041Z,0.00
2018-10-12T03:54:30.003Z,0.00
2018-10-12T03:55:29.963Z,0.00
2018-10-12T03:56:29.919Z,0.00
2018-10-12T03:57:29.880Z,0.00
2018-10-12T03:58:29.859Z,0.00
2018-10-12T03:59:29.811Z,0.00
2018-10-12T04:00:29.777Z,0.00
2018-10-12T04:01:29.731Z,0.00
2018-10-12T04:02:29.725Z,0.00
2018-10-12T04:03:29.659Z,0.00
2018-10-12T04:04:29.632Z,0.00
2018-10-12T04:05:29.608Z,0.00
2018-10-12T04:06:29.539Z,0.00
2018-10-12T04:07:29.519Z,0.00
2018-10-12T04:08:29.469Z,0.00
2018-10-12T04:09:29.440Z,0.00
2018-10-12T04:10:29.400Z,0.00
2018-10-12T04:11:29.365Z,0.00
2018-10-12T04:12:29.320Z,0.00
2018-10-12T04:13:29.327Z,0.00
2018-10-12T04:14:29.253Z,0.00
2018-10-12T04:15:29.206Z,0.00
2018-10-12T04:16:29.180Z,0.00
2018-10-12T04:17:29.155Z,0.00
2018-10-12T04:18:29.095Z,0.00
2018-10-12T04:19:29.064Z,0.00
2018-10-12T04:20:29.018Z,0.00
2018-10-12T04:21:28.981Z,0.00
2018-10-12T04:22:28.948Z,0.00
2018-10-12T04:23:28.907Z,0.00
2018-10-12T04:24:28.870Z,0.00
2018-10-12T04:25:28.845Z,0.00
2018-10-12T04:26:28.786Z,0.00
2018-10-12T04:27:28.764Z,0.00
2018-10-12T04:28:28.730Z,0.00
2018-10-12T04:29:28.678Z,0.00
2018-10-12T04:30:28.660Z,0.00
2018-10-12T04:31:28.607Z,0.00
2018-10-12T04:32:28.570Z,0.00
2018-10-12T04:33:28.528Z,0.00
2018-10-12T04:34:28.494Z,0.00
2018-10-12T04:35:28.461Z,0.00
2018-10-12T04:36:28.424Z,0.00
2018-10-12T04:37:28.392Z,0.00
2018-10-12T04:38:28.348Z,0.00
2018-10-12T04:39:28.354Z,0.00
2018-10-12T04:40:28.257Z,0.00
2018-10-12T04:41:28.231Z,0.00
2018-10-12T04:42:29.721Z,0.00
2018-10-12T04:43:28.159Z,0.00
2018-10-12T04:44:28.141Z,0.00
2018-10-12T04:45:28.075Z,0.00
2018-10-12T04:46:28.069Z,0.00
2018-10-12T04:47:28.006Z,0.00
2018-10-12T04:48:27.998Z,0.00
2018-10-12T04:49:27.926Z,0.00
2018-10-12T04:50:27.917Z,0.00
2018-10-12T04:51:27.880Z,0.00
2018-10-12T04:52:27.826Z,0.00
2018-10-12T04:53:27.795Z,4.00
2018-10-12T04:54:27.749Z,4.00
2018-10-12T04:55:27.721Z,0.00
2018-10-12T04:56:27.678Z,4.00
2018-10-12T04:57:27.646Z,4.00
2018-10-12T04:58:27.604Z,4.00
2018-10-12T04:59:27.553Z,4.00
2018-10-12T05:00:27.519Z,4.00
2018-10-12T05:01:27.475Z,4.00
2018-10-12T05:02:27.443Z,8.00
2018-10-12T05:03:27.421Z,8.00
2018-10-12T05:04:27.365Z,12.00
2018-10-12T05:05:27.345Z,12.00
2018-10-12T05:06:27.303Z,16.00
2018-10-12T05:07:27.257Z,20.00
2018-10-12T05:08:27.222Z,24.00
2018-10-12T05:09:27.202Z,32.00
2018-10-12T05:10:27.143Z,36.00
2018-10-12T05:11:27.118Z,44.00
2018-10-12T05:12:27.075Z,48.00
2018-10-12T05:13:27.032Z,60.00
2018-10-12T05:14:26.979Z,72.00
2018-10-12T05:15:27.643Z,84.00
2018-10-12T05:16:26.917Z,100.00
2018-10-12T05:17:26.865Z,112.00
2018-10-12T05:18:26.839Z,128.00
2018-10-12T05:19:26.829Z,144.00
2018-10-12T05:20:26.758Z,168.00
2018-10-12T05:21:26.734Z,184.00
2018-10-12T05:22:26.687Z,204.00
2018-10-12T05:23:26.642Z,232.00
2018-10-12T05:24:26.616Z,260.00
2018-10-12T05:25:26.595Z,284.00
2018-10-12T05:26:26.549Z,316.00
2018-10-12T05:27:26.517Z,348.00
2018-10-12T05:28:26.461Z,384.00
2018-10-12T05:29:26.427Z,424.00
2018-10-12T05:30:26.378Z,468.00
2018-10-12T05:31:26.344Z,516.00
2018-10-12T05:32:26.308Z,568.00
2018-10-12T05:33:26.276Z,620.00
2018-10-12T05:34:26.221Z,680.00
2018-10-12T05:35:26.193Z,744.00
2018-10-12T05:36:26.160Z,808.00
2018-10-12T05:37:26.129Z,884.00
2018-10-12T05:38:26.083Z,960.00
2018-10-12T05:39:26.046Z,1032.00
2018-10-12T05:40:26.004Z,1112.00
2018-10-12T05:41:25.958Z,1184.00
2018-10-12T05:42:25.924Z,1260.00
2018-10-12T05:43:26.021Z,1324.00
2018-10-12T05:44:25.854Z,1392.00
2018-10-12T05:45:25.824Z,1456.00
2018-10-12T05:46:25.786Z,1520.00
2018-10-12T05:47:25.745Z,1588.00
2018-10-12T05:48:25.702Z,1668.00
2018-10-12T05:49:25.673Z,1756.00
2018-10-12T05:50:25.628Z,1836.00
2018-10-12T05:51:25.621Z,1896.00
2018-10-12T05:52:25.599Z,1932.00
2018-10-12T05:53:25.516Z,1956.00
2018-10-12T05:54:25.476Z,1988.00
2018-10-12T05:55:25.457Z,2032.00
2018-10-12T05:56:25.399Z,2088.00
2018-10-12T05:57:25.361Z,2140.00
2018-10-12T05:58:25.366Z,2204.00
2018-10-12T05:59:25.322Z,2272.00
2018-10-12T06:00:25.280Z,2340.00
2018-10-12T06:01:25.314Z,2408.00
2018-10-12T06:02:25.191Z,2476.00
2018-10-12T06:03:25.156Z,2536.00
2018-10-12T06:04:25.105Z,2600.00
2018-10-12T06:05:25.066Z,2672.00
2018-10-12T06:06:25.042Z,2748.00
2018-10-12T06:07:25.000Z,2824.00
2018-10-12T06:08:24.976Z,2904.00
2018-10-12T06:09:24.996Z,2984.00
2018-10-12T06:10:24.924Z,3060.00
2018-10-12T06:11:24.898Z,3144.00
2018-10-12T06:12:24.936Z,3248.00
2018-10-12T06:13:24.768Z,3356.00
2018-10-12T06:14:24.721Z,3452.00
2018-10-12T06:15:24.707Z,3536.00
2018-10-12T06:16:24.668Z,3616.00
2018-10-12T06:17:24.612Z,3692.00
2018-10-12T06:18:24.574Z,3756.00
2018-10-12T06:19:24.549Z,3808.00
2018-10-12T06:20:24.551Z,3836.00
2018-10-12T06:21:24.498Z,3840.00
2018-10-12T06:22:24.419Z,3864.00
2018-10-12T06:23:24.416Z,3916.00
2018-10-12T06:24:24.361Z,3992.00
2018-10-12T06:25:24.312Z,4096.00
2018-10-12T06:26:24.272Z,4224.00
2018-10-12T06:27:24.249Z,4352.00
2018-10-12T06:28:24.190Z,4452.00
2018-10-12T06:29:24.150Z,4532.00
2018-10-12T06:30:24.141Z,4596.00
2018-10-12T06:31:24.107Z,4692.00
2018-10-12T06:32:24.053Z,4840.00
2018-10-12T06:33:24.020Z,5060.00
2018-10-12T06:34:23.962Z,5168.00
2018-10-12T06:35:23.912Z,5248.00
2018-10-12T06:36:23.891Z,5332.00
2018-10-12T06:37:23.862Z,5416.00
2018-10-12T06:38:23.802Z,5484.00
2018-10-12T06:39:23.772Z,5556.00
2018-10-12T06:40:23.731Z,5616.00
2018-10-12T06:41:23.755Z,5676.00
2018-10-12T06:42:23.638Z,5736.00
2018-10-12T06:43:23.629Z,5792.00
2018-10-12T06:44:23.581Z,5852.00
2018-10-12T06:45:23.546Z,5936.00
2018-10-12T06:46:23.581Z,5980.00
2018-10-12T06:47:23.483Z,6036.00
2018-10-12T06:48:23.428Z,6104.00
2018-10-12T06:49:23.400Z,6152.00
2018-10-12T06:50:23.353Z,6204.00
2018-10-12T06:51:23.323Z,6320.00
2018-10-12T06:52:23.265Z,7204.00
2018-10-12T06:53:23.229Z,11328.00
2018-10-12T06:54:23.191Z,15264.00
2018-10-12T06:55:23.156Z,16288.00
2018-10-12T06:56:23.126Z,16480.00
2018-10-12T06:57:23.109Z,15616.00
2018-10-12T06:58:23.057Z,12616.00
2018-10-12T06:59:23.024Z,13308.00
2018-10-12T07:00:22.987Z,16416.00
2018-10-12T07:01:22.955Z,16960.00
2018-10-12T07:02:22.897Z,17216.00
2018-10-12T07:03:23.140Z,16992.00
2018-10-12T07:04:22.844Z,13888.00
2018-10-12T07:05:22.822Z,13960.00
2018-10-12T07:06:22.780Z,17760.00
2018-10-12T07:07:22.749Z,18592.00
2018-10-12T07:08:22.708Z,18976.00
2018-10-12T07:09:22.668Z,19648.00
2018-10-12T07:10:22.629Z,19136.00
2018-10-12T07:11:22.604Z,18592.00
2018-10-12T07:12:22.592Z,18560.00
2018-10-12T07:13:22.540Z,18432.00
2018-10-12T07:14:22.498Z,21376.00
2018-10-12T07:15:22.480Z,22240.00
2018-10-12T07:16:22.451Z,20224.00
2018-10-12T07:17:22.406Z,19712.00
2018-10-12T07:18:22.399Z,19744.00
2018-10-12T07:19:22.371Z,22272.00
2018-10-12T07:20:22.329Z,18720.00
2018-10-12T07:21:22.301Z,13040.00
2018-10-12T07:22:22.270Z,20192.00
2018-10-12T07:23:22.235Z,25888.00
2018-10-12T07:24:22.212Z,25312.00
2018-10-12T07:25:22.188Z,23456.00
2018-10-12T07:26:22.147Z,20544.00
2018-10-12T07:27:22.135Z,20576.00
2018-10-12T07:28:22.097Z,13528.00
2018-10-12T07:29:22.117Z,12152.00
2018-10-12T07:30:22.042Z,14400.00
2018-10-12T07:31:22.063Z,21536.00
2018-10-12T07:32:22.027Z,29248.00
2018-10-12T07:33:21.955Z,30080.00
2018-10-12T07:34:21.920Z,29376.00
2018-10-12T07:35:21.891Z,24960.00
2018-10-12T07:36:21.856Z,22912.00
2018-10-12T07:37:21.849Z,28128.00
2018-10-12T07:38:22.008Z,21888.00
2018-10-12T07:39:21.790Z,23584.00
2018-10-12T07:40:21.744Z,29216.00
2018-10-12T07:41:21.724Z,23264.00
2018-10-12T07:42:21.724Z,22304.00
2018-10-12T07:43:21.724Z,14264.00
2018-10-12T07:44:21.649Z,16984.00
2018-10-12T07:45:21.614Z,19296.00
2018-10-12T07:46:21.614Z,13908.00
2018-10-12T07:47:21.590Z,13312.00
2018-10-12T07:48:21.590Z,16356.00
2018-10-12T07:49:22.638Z,25664.00
2018-10-12T07:50:21.469Z,26976.00
2018-10-12T07:51:21.547Z,22368.00
2018-10-12T07:52:21.436Z,31712.00
2018-10-12T07:53:21.597Z,32224.00
2018-10-12T07:54:21.387Z,22688.00
2018-10-12T07:55:21.359Z,27296.00
2018-10-12T07:56:21.323Z,25184.00
2018-10-12T07:57:21.279Z,19488.00
2018-10-12T07:58:21.270Z,34048.00
2018-10-12T07:59:21.233Z,43648.00
2018-10-12T08:00:21.314Z,33440.00
2018-10-12T08:01:21.181Z,25920.00
2018-10-12T08:02:21.149Z,31136.00
2018-10-12T08:03:21.125Z,27424.00
2018-10-12T08:04:21.102Z,15216.00
2018-10-12T08:05:21.089Z,20224.00
2018-10-12T08:06:21.150Z,38784.00
2018-10-12T08:07:21.014Z,42464.00
2018-10-12T08:08:20.984Z,39136.00
2018-10-12T08:09:20.963Z,25472.00
2018-10-12T08:10:20.935Z,16072.00
2018-10-12T08:11:20.908Z,20160.00
2018-10-12T08:12:20.883Z,23616.00
2018-10-12T08:13:20.852Z,22272.00
2018-10-12T08:14:20.864Z,30112.00
2018-10-12T08:15:20.800Z,31008.00
2018-10-12T08:16:20.810Z,28960.00
2018-10-12T08:17:20.768Z,30304.00
2018-10-12T08:18:20.765Z,37120.00
2018-10-12T08:19:20.688Z,28832.00
2018-10-12T08:20:20.711Z,26560.00
2018-10-12T08:21:20.688Z,38432.00
2018-10-12T08:22:20.629Z,34112.00
2018-10-12T08:23:20.590Z,34464.00
2018-10-12T08:24:20.583Z,32512.00
2018-10-12T08:25:20.530Z,19136.00
2018-10-12T08:26:20.506Z,19008.00
2018-10-12T08:27:20.476Z,19264.00
2018-10-12T08:28:20.474Z,21344.00
2018-10-12T08:29:20.415Z,34880.00
2018-10-12T08:30:20.414Z,43424.00
2018-10-12T08:31:20.392Z,49152.00
2018-10-12T08:32:20.355Z,50912.00
2018-10-12T08:33:20.316Z,37984.00
2018-10-12T08:34:20.291Z,29344.00
2018-10-12T08:35:20.265Z,30656.00
2018-10-12T08:36:20.267Z,23392.00
2018-10-12T08:37:20.273Z,20192.00
2018-10-12T08:38:20.186Z,22656.00
2018-10-12T08:39:20.152Z,23936.00
2018-10-12T08:40:20.126Z,38528.00
2018-10-12T08:41:20.090Z,40928.00
2018-10-12T08:42:20.069Z,38496.00
2018-10-12T08:43:20.046Z,43392.00
2018-10-12T08:44:20.027Z,40896.00
2018-10-12T08:45:20.014Z,33312.00
2018-10-12T08:46:19.977Z,29536.00
2018-10-12T08:47:19.939Z,40768.00
2018-10-12T08:48:19.940Z,38656.00
2018-10-12T08:49:19.922Z,48000.00
2018-10-12T08:50:19.872Z,55360.00
2018-10-12T08:51:19.852Z,54080.00
2018-10-12T08:52:19.834Z,51456.00
2018-10-12T08:53:19.801Z,49504.00
2018-10-12T08:54:19.783Z,50112.00
2018-10-12T08:55:19.845Z,56864.00
2018-10-12T08:56:19.835Z,60384.00
2018-10-12T08:57:19.746Z,54880.00
2018-10-12T08:58:19.702Z,48320.00
2018-10-12T08:59:19.683Z,46048.00
2018-10-12T09:00:19.663Z,40896.00
2018-10-12T09:01:19.629Z,31936.00
2018-10-12T09:02:19.609Z,35840.00
2018-10-12T09:03:19.593Z,41952.00
2018-10-12T09:04:19.565Z,52672.00
2018-10-12T09:05:19.546Z,54912.00
2018-10-12T09:06:19.525Z,53984.00
2018-10-12T09:07:19.488Z,58560.00
2018-10-12T09:08:19.489Z,56896.00
2018-10-12T09:09:19.452Z,55808.00
2018-10-12T09:10:19.450Z,52256.00
2018-10-12T09:11:19.424Z,56480.00
2018-10-12T09:12:19.411Z,60736.00
2018-10-12T09:13:19.492Z,57568.00
2018-10-12T09:14:19.367Z,62656.00
2018-10-12T09:15:19.349Z,58944.00
2018-10-12T09:16:19.369Z,61952.00
2018-10-12T09:17:19.314Z,64128.00
2018-10-12T09:18:19.335Z,62528.00
2018-10-12T09:19:19.294Z,57792.00
2018-10-12T09:20:19.387Z,59712.00
2018-10-12T09:21:19.231Z,61888.00
2018-10-12T09:22:19.310Z,56064.00
2018-10-12T09:23:19.194Z,57856.00
2018-10-12T09:24:19.172Z,57792.00
2018-10-12T09:25:19.179Z,62496.00
2018-10-12T09:26:19.137Z,64256.00
2018-10-12T09:27:19.166Z,67008.00
2018-10-12T09:28:19.115Z,66080.00
2018-10-12T09:29:19.146Z,62368.00
2018-10-12T09:30:19.128Z,58336.00
2018-10-12T09:31:19.038Z,52160.00
2018-10-12T09:32:19.059Z,60192.00
2018-10-12T09:33:19.004Z,63840.00
2018-10-12T09:34:19.005Z,64192.00
2018-10-12T09:35:18.977Z,61056.00
2018-10-12T09:36:18.960Z,58272.00
2018-10-12T09:37:18.948Z,68320.00
2018-10-12T09:38:18.927Z,71808.00
2018-10-12T09:39:18.905Z,66624.00
2018-10-12T09:40:18.906Z,65728.00
2018-10-12T09:41:18.873Z,60224.00
2018-10-12T09:42:18.855Z,65056.00
2018-10-12T09:43:18.839Z,58112.00
2018-10-12T09:44:18.821Z,52320.00
2018-10-12T09:45:18.830Z,62400.00
2018-10-12T09:46:18.790Z,68928.00
2018-10-12T09:47:18.760Z,71104.00
2018-10-12T09:48:18.747Z,64768.00
2018-10-12T09:49:18.739Z,71392.00
2018-10-12T09:50:18.730Z,66272.00
2018-10-12T09:51:18.698Z,68192.00
2018-10-12T09:52:18.712Z,67456.00
2018-10-12T09:53:18.657Z,61344.00
2018-10-12T09:54:18.693Z,69024.00
2018-10-12T09:55:18.641Z,69952.00
2018-10-12T09:56:18.617Z,70048.00
2018-10-12T09:57:18.595Z,68928.00
2018-10-12T09:58:18.603Z,69248.00
2018-10-12T09:59:18.564Z,67904.00
2018-10-12T10:00:18.558Z,68960.00
2018-10-12T10:01:18.533Z,66144.00
2018-10-12T10:02:18.722Z,68864.00
2018-10-12T10:03:18.502Z,68992.00
2018-10-12T10:04:18.477Z,63552.00
2018-10-12T10:05:18.474Z,65536.00
2018-10-12T10:06:18.454Z,73600.00
2018-10-12T10:07:18.424Z,77376.00
2018-10-12T10:08:18.533Z,79424.00
2018-10-12T10:09:18.397Z,74272.00
2018-10-12T10:10:18.383Z,68128.00
2018-10-12T10:11:18.359Z,76928.00
2018-10-12T10:12:18.349Z,73536.00
2018-10-12T10:13:18.329Z,66848.00
2018-10-12T10:14:18.324Z,75616.00
2018-10-12T10:15:18.300Z,71520.00
2018-10-12T10:16:18.284Z,74144.00
2018-10-12T10:17:18.287Z,77152.00
2018-10-12T10:18:18.261Z,72640.00
2018-10-12T10:19:18.257Z,72288.00
2018-10-12T10:20:18.342Z,70464.00
2018-10-12T10:21:18.196Z,66496.00
2018-10-12T10:22:18.228Z,73344.00
2018-10-12T10:23:18.560Z,65248.00
2018-10-12T10:24:18.157Z,72256.00
2018-10-12T10:25:18.142Z,80704.00
2018-10-12T10:26:18.112Z,75904.00
2018-10-12T10:27:18.096Z,75616.00
2018-10-12T10:28:18.092Z,74944.00
2018-10-12T10:29:18.105Z,80320.00
2018-10-12T10:30:18.061Z,86272.00
2018-10-12T10:31:18.034Z,79392.00
2018-10-12T10:32:18.084Z,72992.00
2018-10-12T10:33:18.008Z,67136.00
2018-10-12T10:34:17.982Z,74560.00
2018-10-12T10:35:17.965Z,87104.00
2018-10-12T10:36:17.957Z,88288.00
2018-10-12T10:37:17.928Z,80800.00
2018-10-12T10:38:17.909Z,72960.00
2018-10-12T10:39:17.888Z,73472.00
2018-10-12T10:40:17.882Z,78144.00
2018-10-12T10:41:17.862Z,78688.00
2018-10-12T10:42:17.852Z,75424.00
2018-10-12T10:43:17.826Z,69792.00
2018-10-12T10:44:17.816Z,66112.00
2018-10-12T10:45:17.797Z,72768.00
2018-10-12T10:46:17.828Z,81440.00
2018-10-12T10:47:17.768Z,89280.00
2018-10-12T10:48:17.750Z,88064.00
2018-10-12T10:49:17.737Z,84768.00
2018-10-12T10:50:17.717Z,78976.00
2018-10-12T10:51:17.701Z,76640.00
2018-10-12T10:52:17.685Z,76064.00
2018-10-12T10:53:17.672Z,76512.00
2018-10-12T10:54:17.678Z,78784.00
2018-10-12T10:55:17.637Z,76352.00
2018-10-12T10:56:17.632Z,76928.00
2018-10-12T10:57:17.632Z,77280.00
2018-10-12T10:58:17.591Z,72512.00
2018-10-12T10:59:17.559Z,70336.00
2018-10-12T11:00:17.572Z,72512.00
2018-10-12T11:01:17.535Z,71456.00
2018-10-12T11:02:17.511Z,76032.00
2018-10-12T11:03:17.490Z,74336.00
2018-10-12T11:04:17.481Z,73984.00
2018-10-12T11:05:17.466Z,77120.00
2018-10-12T11:06:17.476Z,74912.00
2018-10-12T11:07:17.429Z,83104.00
2018-10-12T11:08:17.432Z,85088.00
2018-10-12T11:09:17.397Z,83296.00
2018-10-12T11:10:17.384Z,68576.00
2018-10-12T11:11:17.360Z,67520.00
2018-10-12T11:12:17.407Z,72896.00
2018-10-12T11:13:17.343Z,80352.00
2018-10-12T11:14:17.316Z,76672.00
2018-10-12T11:15:17.380Z,67552.00
2018-10-12T11:16:17.307Z,63328.00
2018-10-12T11:17:17.255Z,69152.00
2018-10-12T11:18:17.293Z,74848.00
2018-10-12T11:19:17.224Z,79424.00
2018-10-12T11:20:17.225Z,75200.00
2018-10-12T11:21:17.212Z,72704.00
2018-10-12T11:22:17.165Z,68800.00
2018-10-12T11:23:17.194Z,69344.00
2018-10-12T11:24:17.155Z,70336.00
2018-10-12T11:25:17.135Z,66944.00
2018-10-12T11:26:17.136Z,68288.00
2018-10-12T11:27:17.089Z,66720.00
2018-10-12T11:28:17.159Z,72064.00
2018-10-12T11:29:17.061Z,80608.00
2018-10-12T11:30:17.193Z,81344.00
2018-10-12T11:31:17.018Z,80576.00
2018-10-12T11:32:16.992Z,78816.00
2018-10-12T11:33:16.970Z,80736.00
2018-10-12T11:34:16.959Z,72960.00
2018-10-12T11:35:16.941Z,76128.00
2018-10-12T11:36:16.918Z,82464.00
2018-10-12T11:37:16.912Z,89024.00
2018-10-12T11:38:16.904Z,80832.00
2018-10-12T11:39:16.878Z,84000.00
2018-10-12T11:40:16.850Z,79136.00
2018-10-12T11:41:16.842Z,80896.00
2018-10-12T11:42:16.812Z,83360.00
2018-10-12T11:43:16.802Z,83360.00
2018-10-12T11:44:16.774Z,78496.00
2018-10-12T11:45:16.778Z,71808.00
2018-10-12T11:46:16.734Z,73120.00
2018-10-12T11:47:16.754Z,74464.00
2018-10-12T11:48:16.712Z,78624.00
2018-10-12T11:49:16.692Z,74400.00
2018-10-12T11:50:16.690Z,48256.00
2018-10-12T11:51:16.663Z,33504.00
2018-10-12T11:52:16.747Z,34176.00
2018-10-12T11:53:16.617Z,36032.00
2018-10-12T11:54:16.606Z,32544.00
2018-10-12T11:55:16.655Z,32288.00
2018-10-12T11:56:16.575Z,35936.00
2018-10-12T11:57:16.575Z,37312.00
2018-10-12T11:58:16.569Z,36032.00
2018-10-12T11:59:16.518Z,35648.00
2018-10-12T12:00:16.498Z,35392.00
2018-10-12T12:01:16.471Z,36160.00
2018-10-12T12:02:16.548Z,37120.00
2018-10-12T12:03:16.469Z,33024.00
2018-10-12T12:04:16.419Z,33504.00
2018-10-12T12:05:16.391Z,31232.00
2018-10-12T12:06:16.378Z,30144.00
2018-10-12T12:07:16.459Z,32672.00
2018-10-12T12:08:16.337Z,35936.00
2018-10-12T12:09:16.321Z,36800.00
2018-10-12T12:10:16.318Z,38048.00
2018-10-12T12:11:16.296Z,35328.00
2018-10-12T12:12:16.262Z,34208.00
2018-10-12T12:13:16.243Z,39200.00
2018-10-12T12:14:16.226Z,37856.00
2018-10-12T12:15:16.215Z,33376.00
2018-10-12T12:16:16.202Z,32896.00
2018-10-12T12:17:16.162Z,36576.00
2018-10-12T12:18:16.166Z,34368.00
2018-10-12T12:19:16.182Z,31936.00
2018-10-12T12:20:16.130Z,35008.00
2018-10-12T12:21:16.093Z,36032.00
2018-10-12T12:22:16.076Z,38688.00
2018-10-12T12:23:16.082Z,35872.00
2018-10-12T12:24:16.035Z,33312.00
2018-10-12T12:25:16.014Z,35712.00
2018-10-12T12:26:16.018Z,35168.00
2018-10-12T12:27:15.993Z,31744.00
2018-10-12T12:28:16.018Z,35776.00
2018-10-12T12:29:15.937Z,35648.00